Edmonton City Centre Airport, Alberta

Past 24 Hour Conditions

Date / Time
(MDT)
Conditions Temp
(°C)
Humidity
(%)
Dew Point
(°C)
Wind
(km/h)
Pressure
(kPa)
Visibility
(km)
24 October 2014
12:00 Sunny 9 49 -1 W 19 gust 28 101.2 15
11:00 Sunny 7 56 -1 WSW 24 101.2 15
10:00 Sunny 6 60 -1 WSW 17 101.2 15
9:00 Sunny 4   72 0 W 19 101.1 15
8:00 Clear 4   74 0 W 13 101.0 15
7:00 Clear 4   74 0 W 13 100.9 15
6:00 Clear 4   73 0 W 13 100.8 15
5:00 Clear 5 70 0 W 24 100.7 15
4:00 Clear 5 69 0 W 20 gust 32 100.7 15
3:00 Clear 6 68 0 W 22 gust 33 100.6 15
2:00 Clear 5 67 0 WNW 19 gust 28 100.5 15
1:00 Clear 6 64 0 WNW 15 100.4 15
00:00 Clear 6 62 -1 NW 24 100.4 15
23 October 2014
23:00 Clear 7 52 -3 WNW 17 100.3 15
22:00 Clear 7 46 -4 WNW 15 100.3 15
21:00 Clear 8 51 -2 W 9 100.2 15
20:00 Clear 7 54 -1 calm 100.2 15
19:00 Clear 10 48 -1 calm 100.1 15
18:00 Sunny 12 41 -1 N 13 100.0 15
17:00 Sunny 14 31 -3 WNW 26 99.9 15
16:00 Sunny 15 29 -3 WNW 26 gust 37 99.9 15
15:00 Sunny 17   30 -1 W 33 gust 48 99.8 15
14:00 Sunny 15 39 1 WSW 22 99.7 15
13:00 Sunny 10 54 1 WSW 17 gust 28 99.8 15
12:00 Sunny 8 64 2 WNW 9 99.7 15
N/A Not available
↑ Highest temperature
↓ Lowest temperature

If you require additional historical weather information, please visit Climate Data Online.

Date modified: